Main page
METAR-TAF:

METAR-TAF

Airports :

Kulob Airport

Kulob, Tajikistan

latitude: 37-59-18N, longitude: 069-48-18E, elevation: 699 m

Current weather observation

The report was made 16 minutes ago, at 03:00 UTC
Wind 8 kt from the North/Northeast
Temperature 5°C
Humidity 56%
Pressure 1021 hPa
Visibility: 8000 m

METAR: UTDK 010300Z 03004MPS 8000 NSC 05/M03 Q1021 R01/09//70 RMK QFE708/0944

Time: 08:16 (03:16 UTC)

Forecast

The report was made 3 hours and 16 minutes ago, at 00:00 UTC
Forecast valid from 01 at 01 UTC to 01 at 10 UTC
Wind 4 kt from variable directions
Visibility: 6000 m
Temporary
from 01 at 01 UTC to 01 at 05 UTC
Wind 10 kt from the North/Northeast

TAF: UTDK 010000Z 0101/0110 VRB02MPS 6000 NSC TEMPO 0101/0105 03005MPS

Weather observations and forecasts of more than 4000 airports (METAR and TAF reports).

The available stations are represented by yellow and red dots on the map.

Hover mouse over dot to see the name of the station.

Then click to see weather observations and forecasts.

To change the map : click on the green buttons with a black cross to zoom in, on the green button with a dash to zoom out, or on the green arrows for adjacent maps.


METAR-TAF: